sensor_id;sensor_type;location;lat;lon;timestamp;P1;durP1;ratioP1;P2;durP2;ratioP2
16385;SDS011;8302;51.154;4.456;2022-07-22T00:01:49;4.40;;;1.52;;
16385;SDS011;8302;51.154;4.456;2022-07-22T00:04:17;6.60;;;1.50;;
16385;SDS011;8302;51.154;4.456;2022-07-22T00:06:46;6.28;;;1.63;;
16385;SDS011;8302;51.154;4.456;2022-07-22T00:09:14;5.50;;;1.70;;
16385;SDS011;8302;51.154;4.456;2022-07-22T00:11:43;4.95;;;1.10;;
16385;SDS011;8302;51.154;4.456;2022-07-22T00:14:11;10.65;;;1.50;;
16385;SDS011;8302;51.154;4.456;2022-07-22T00:16:39;4.78;;;1.55;;
16385;SDS011;8302;51.154;4.456;2022-07-22T00:19:09;6.93;;;1.70;;
16385;SDS011;8302;51.154;4.456;2022-07-22T00:21:37;7.05;;;1.13;;
16385;SDS011;8302;51.154;4.456;2022-07-22T00:24:05;4.40;;;1.55;;
16385;SDS011;8302;51.154;4.456;2022-07-22T00:26:34;3.20;;;1.13;;
16385;SDS011;8302;51.154;4.456;2022-07-22T00:29:02;5.28;;;1.25;;
16385;SDS011;8302;51.154;4.456;2022-07-22T00:31:30;4.65;;;1.17;;
16385;SDS011;8302;51.154;4.456;2022-07-22T00:33:58;7.93;;;1.27;;
16385;SDS011;8302;51.154;4.456;2022-07-22T00:36:28;5.20;;;1.40;;
16385;SDS011;8302;51.154;4.456;2022-07-22T00:38:56;4.90;;;1.55;;
16385;SDS011;8302;51.154;4.456;2022-07-22T00:41:26;8.18;;;1.48;;
16385;SDS011;8302;51.154;4.456;2022-07-22T00:43:54;4.03;;;1.35;;
16385;SDS011;8302;51.154;4.456;2022-07-22T00:46:23;6.85;;;1.55;;
16385;SDS011;8302;51.154;4.456;2022-07-22T00:48:51;3.63;;;1.17;;
16385;SDS011;8302;51.154;4.456;2022-07-22T00:51:20;8.30;;;1.58;;
16385;SDS011;8302;51.154;4.456;2022-07-22T00:53:51;3.63;;;1.35;;
16385;SDS011;8302;51.154;4.456;2022-07-22T00:56:20;5.95;;;1.30;;
16385;SDS011;8302;51.154;4.456;2022-07-22T00:58:48;4.55;;;1.38;;
16385;SDS011;8302;51.154;4.456;2022-07-22T01:01:17;2.05;;;1.13;;
16385;SDS011;8302;51.154;4.456;2022-07-22T01:03:45;7.78;;;1.40;;
16385;SDS011;8302;51.154;4.456;2022-07-22T01:06:16;4.55;;;1.55;;
16385;SDS011;8302;51.154;4.456;2022-07-22T01:08:44;6.22;;;1.50;;
16385;SDS011;8302;51.154;4.456;2022-07-22T01:11:15;4.00;;;1.27;;
16385;SDS011;8302;51.154;4.456;2022-07-22T01:13:43;4.22;;;0.80;;
16385;SDS011;8302;51.154;4.456;2022-07-22T01:16:11;3.17;;;1.33;;
16385;SDS011;8302;51.154;4.456;2022-07-22T01:18:41;6.38;;;1.50;;
16385;SDS011;8302;51.154;4.456;2022-07-22T01:21:12;4.63;;;1.27;;
16385;SDS011;8302;51.154;4.456;2022-07-22T01:23:40;4.20;;;1.45;;
16385;SDS011;8302;51.154;4.456;2022-07-22T01:26:08;4.03;;;1.42;;
16385;SDS011;8302;51.154;4.456;2022-07-22T01:28:37;6.22;;;1.67;;
16385;SDS011;8302;51.154;4.456;2022-07-22T01:31:05;2.40;;;1.08;;
16385;SDS011;8302;51.154;4.456;2022-07-22T01:33:33;5.68;;;1.85;;
16385;SDS011;8302;51.154;4.456;2022-07-22T01:36:01;3.72;;;1.63;;
16385;SDS011;8302;51.154;4.456;2022-07-22T01:38:31;5.32;;;1.33;;
16385;SDS011;8302;51.154;4.456;2022-07-22T01:41:00;4.60;;;1.50;;
16385;SDS011;8302;51.154;4.456;2022-07-22T01:43:28;3.30;;;1.15;;
16385;SDS011;8302;51.154;4.456;2022-07-22T01:45:56;5.82;;;1.50;;
16385;SDS011;8302;51.154;4.456;2022-07-22T01:48:24;4.45;;;1.48;;
16385;SDS011;8302;51.154;4.456;2022-07-22T01:50:53;4.43;;;1.20;;
16385;SDS011;8302;51.154;4.456;2022-07-22T01:53:21;2.75;;;1.50;;
16385;SDS011;8302;51.154;4.456;2022-07-22T01:55:50;4.82;;;1.35;;
16385;SDS011;8302;51.154;4.456;2022-07-22T01:58:19;2.95;;;1.40;;
16385;SDS011;8302;51.154;4.456;2022-07-22T02:00:49;2.67;;;1.20;;
16385;SDS011;8302;51.154;4.456;2022-07-22T02:03:19;3.80;;;1.08;;
16385;SDS011;8302;51.154;4.456;2022-07-22T02:05:47;4.93;;;1.20;;
16385;SDS011;8302;51.154;4.456;2022-07-22T02:08:20;6.38;;;1.40;;
16385;SDS011;8302;51.154;4.456;2022-07-22T02:11:25;4.30;;;1.40;;
16385;SDS011;8302;51.154;4.456;2022-07-22T02:13:55;4.45;;;1.40;;
16385;SDS011;8302;51.154;4.456;2022-07-22T02:16:25;3.70;;;1.30;;
16385;SDS011;8302;51.154;4.456;2022-07-22T02:18:53;3.90;;;1.60;;
16385;SDS011;8302;51.154;4.456;2022-07-22T02:21:22;4.35;;;1.70;;
16385;SDS011;8302;51.154;4.456;2022-07-22T02:23:56;6.45;;;1.70;;
16385;SDS011;8302;51.154;4.456;2022-07-22T02:26:26;4.43;;;1.52;;
16385;SDS011;8302;51.154;4.456;2022-07-22T02:28:54;5.00;;;1.60;;
16385;SDS011;8302;51.154;4.456;2022-07-22T02:31:23;3.03;;;1.17;;
16385;SDS011;8302;51.154;4.456;2022-07-22T02:33:52;4.57;;;1.58;;
16385;SDS011;8302;51.154;4.456;2022-07-22T02:36:23;3.08;;;1.40;;
16385;SDS011;8302;51.154;4.456;2022-07-22T02:38:52;3.13;;;1.40;;
16385;SDS011;8302;51.154;4.456;2022-07-22T02:41:21;4.43;;;1.35;;
16385;SDS011;8302;51.154;4.456;2022-07-22T02:43:54;5.07;;;1.70;;
16385;SDS011;8302;51.154;4.456;2022-07-22T02:46:23;4.00;;;1.60;;
16385;SDS011;8302;51.154;4.456;2022-07-22T02:48:52;4.93;;;1.45;;
16385;SDS011;8302;51.154;4.456;2022-07-22T02:51:21;5.90;;;2.00;;
16385;SDS011;8302;51.154;4.456;2022-07-22T02:53:50;5.72;;;1.42;;
16385;SDS011;8302;51.154;4.456;2022-07-22T02:56:19;6.57;;;1.77;;
16385;SDS011;8302;51.154;4.456;2022-07-22T02:58:47;3.92;;;1.60;;
16385;SDS011;8302;51.154;4.456;2022-07-22T03:01:20;4.25;;;1.70;;
16385;SDS011;8302;51.154;4.456;2022-07-22T03:03:58;3.42;;;1.65;;
16385;SDS011;8302;51.154;4.456;2022-07-22T03:06:28;2.75;;;1.40;;
16385;SDS011;8302;51.154;4.456;2022-07-22T03:09:01;4.88;;;1.55;;
16385;SDS011;8302;51.154;4.456;2022-07-22T03:11:31;2.20;;;1.13;;
16385;SDS011;8302;51.154;4.456;2022-07-22T03:14:01;4.80;;;1.67;;
16385;SDS011;8302;51.154;4.456;2022-07-22T03:16:32;2.78;;;1.30;;
16385;SDS011;8302;51.154;4.456;2022-07-22T03:19:00;3.63;;;1.20;;
16385;SDS011;8302;51.154;4.456;2022-07-22T03:21:28;3.88;;;1.30;;
16385;SDS011;8302;51.154;4.456;2022-07-22T03:23:56;3.45;;;1.50;;
16385;SDS011;8302;51.154;4.456;2022-07-22T03:26:24;4.03;;;1.30;;
16385;SDS011;8302;51.154;4.456;2022-07-22T03:28:52;4.30;;;1.33;;
16385;SDS011;8302;51.154;4.456;2022-07-22T03:31:21;6.72;;;1.60;;
16385;SDS011;8302;51.154;4.456;2022-07-22T03:33:51;4.57;;;1.50;;
16385;SDS011;8302;51.154;4.456;2022-07-22T03:36:19;4.50;;;1.50;;
16385;SDS011;8302;51.154;4.456;2022-07-22T03:38:50;2.92;;;1.50;;
16385;SDS011;8302;51.154;4.456;2022-07-22T03:41:19;2.55;;;1.33;;
16385;SDS011;8302;51.154;4.456;2022-07-22T03:43:47;2.67;;;1.65;;
16385;SDS011;8302;51.154;4.456;2022-07-22T03:46:16;5.40;;;1.63;;
16385;SDS011;8302;51.154;4.456;2022-07-22T03:48:45;7.55;;;1.17;;
16385;SDS011;8302;51.154;4.456;2022-07-22T03:51:15;6.68;;;1.90;;
16385;SDS011;8302;51.154;4.456;2022-07-22T03:53:43;2.60;;;1.60;;
16385;SDS011;8302;51.154;4.456;2022-07-22T03:56:11;4.82;;;1.20;;
16385;SDS011;8302;51.154;4.456;2022-07-22T03:58:39;3.58;;;1.77;;
16385;SDS011;8302;51.154;4.456;2022-07-22T04:01:07;2.63;;;1.55;;
16385;SDS011;8302;51.154;4.456;2022-07-22T04:03:39;4.40;;;1.40;;
16385;SDS011;8302;51.154;4.456;2022-07-22T04:06:41;3.88;;;1.60;;
16385;SDS011;8302;51.154;4.456;2022-07-22T04:09:16;4.90;;;1.80;;
16385;SDS011;8302;51.154;4.456;2022-07-22T04:11:44;2.47;;;1.65;;
16385;SDS011;8302;51.154;4.456;2022-07-22T04:14:13;4.45;;;1.63;;
16385;SDS011;8302;51.154;4.456;2022-07-22T04:16:43;1.90;;;1.35;;
16385;SDS011;8302;51.154;4.456;2022-07-22T04:19:12;2.60;;;1.48;;
16385;SDS011;8302;51.154;4.456;2022-07-22T04:22:07;3.05;;;1.50;;
16385;SDS011;8302;51.154;4.456;2022-07-22T04:24:35;4.70;;;1.77;;
16385;SDS011;8302;51.154;4.456;2022-07-22T04:27:03;2.60;;;1.40;;
16385;SDS011;8302;51.154;4.456;2022-07-22T04:29:33;4.68;;;1.67;;
16385;SDS011;8302;51.154;4.456;2022-07-22T04:32:01;3.17;;;1.40;;
16385;SDS011;8302;51.154;4.456;2022-07-22T04:34:29;3.03;;;1.45;;
16385;SDS011;8302;51.154;4.456;2022-07-22T04:36:58;6.70;;;1.90;;
16385;SDS011;8302;51.154;4.456;2022-07-22T04:39:34;4.28;;;1.48;;
16385;SDS011;8302;51.154;4.456;2022-07-22T04:42:02;4.00;;;2.20;;
16385;SDS011;8302;51.154;4.456;2022-07-22T04:44:31;3.13;;;1.42;;
16385;SDS011;8302;51.154;4.456;2022-07-22T04:47:00;3.47;;;1.38;;
16385;SDS011;8302;51.154;4.456;2022-07-22T04:49:35;5.47;;;1.98;;
16385;SDS011;8302;51.154;4.456;2022-07-22T04:52:05;4.32;;;1.60;;
16385;SDS011;8302;51.154;4.456;2022-07-22T04:54:43;3.15;;;1.55;;
16385;SDS011;8302;51.154;4.456;2022-07-22T04:57:12;5.03;;;1.80;;
16385;SDS011;8302;51.154;4.456;2022-07-22T04:59:41;6.55;;;1.67;;
16385;SDS011;8302;51.154;4.456;2022-07-22T05:02:09;6.50;;;1.98;;
16385;SDS011;8302;51.154;4.456;2022-07-22T05:04:39;3.47;;;1.83;;
16385;SDS011;8302;51.154;4.456;2022-07-22T05:07:08;4.00;;;1.45;;
16385;SDS011;8302;51.154;4.456;2022-07-22T05:09:35;4.95;;;1.77;;
16385;SDS011;8302;51.154;4.456;2022-07-22T05:12:05;6.60;;;1.90;;
16385;SDS011;8302;51.154;4.456;2022-07-22T05:14:34;3.05;;;1.38;;
16385;SDS011;8302;51.154;4.456;2022-07-22T05:17:03;5.53;;;2.00;;
16385;SDS011;8302;51.154;4.456;2022-07-22T05:19:33;6.18;;;1.65;;
16385;SDS011;8302;51.154;4.456;2022-07-22T05:22:02;2.58;;;1.52;;
16385;SDS011;8302;51.154;4.456;2022-07-22T05:24:30;8.82;;;1.77;;
16385;SDS011;8302;51.154;4.456;2022-07-22T05:26:58;5.72;;;1.50;;
16385;SDS011;8302;51.154;4.456;2022-07-22T05:29:28;2.88;;;1.70;;
16385;SDS011;8302;51.154;4.456;2022-07-22T05:31:57;4.55;;;1.65;;
16385;SDS011;8302;51.154;4.456;2022-07-22T05:34:25;5.05;;;1.73;;
16385;SDS011;8302;51.154;4.456;2022-07-22T05:36:54;6.25;;;2.10;;
16385;SDS011;8302;51.154;4.456;2022-07-22T05:39:21;6.13;;;2.03;;
16385;SDS011;8302;51.154;4.456;2022-07-22T05:41:50;6.53;;;1.80;;
16385;SDS011;8302;51.154;4.456;2022-07-22T05:44:22;5.65;;;1.65;;
16385;SDS011;8302;51.154;4.456;2022-07-22T05:46:52;6.22;;;2.00;;
16385;SDS011;8302;51.154;4.456;2022-07-22T05:49:20;11.77;;;2.30;;
16385;SDS011;8302;51.154;4.456;2022-07-22T05:51:56;5.65;;;2.10;;
16385;SDS011;8302;51.154;4.456;2022-07-22T05:54:27;10.15;;;2.05;;
16385;SDS011;8302;51.154;4.456;2022-07-22T05:56:54;4.22;;;1.67;;
16385;SDS011;8302;51.154;4.456;2022-07-22T05:59:23;4.80;;;1.90;;
16385;SDS011;8302;51.154;4.456;2022-07-22T06:01:53;3.30;;;1.75;;
16385;SDS011;8302;51.154;4.456;2022-07-22T06:04:35;6.90;;;1.90;;
16385;SDS011;8302;51.154;4.456;2022-07-22T06:07:03;10.15;;;2.00;;
16385;SDS011;8302;51.154;4.456;2022-07-22T06:09:33;5.40;;;1.90;;
16385;SDS011;8302;51.154;4.456;2022-07-22T06:12:01;7.95;;;2.53;;
16385;SDS011;8302;51.154;4.456;2022-07-22T06:14:30;9.77;;;2.17;;
16385;SDS011;8302;51.154;4.456;2022-07-22T06:17:00;6.20;;;2.30;;
16385;SDS011;8302;51.154;4.456;2022-07-22T06:19:28;8.60;;;2.10;;
16385;SDS011;8302;51.154;4.456;2022-07-22T06:21:56;7.93;;;1.83;;
16385;SDS011;8302;51.154;4.456;2022-07-22T06:24:24;7.40;;;1.67;;
16385;SDS011;8302;51.154;4.456;2022-07-22T06:26:53;2.80;;;1.50;;
16385;SDS011;8302;51.154;4.456;2022-07-22T06:29:21;4.85;;;1.92;;
16385;SDS011;8302;51.154;4.456;2022-07-22T06:31:49;7.68;;;2.00;;
16385;SDS011;8302;51.154;4.456;2022-07-22T06:34:18;2.97;;;1.30;;
16385;SDS011;8302;51.154;4.456;2022-07-22T06:36:58;5.88;;;1.77;;
16385;SDS011;8302;51.154;4.456;2022-07-22T06:39:26;3.63;;;1.75;;
16385;SDS011;8302;51.154;4.456;2022-07-22T06:42:13;5.60;;;1.88;;
16385;SDS011;8302;51.154;4.456;2022-07-22T06:45:01;7.00;;;1.52;;
16385;SDS011;8302;51.154;4.456;2022-07-22T06:47:52;11.65;;;1.90;;
16385;SDS011;8302;51.154;4.456;2022-07-22T06:50:24;11.15;;;1.75;;
16385;SDS011;8302;51.154;4.456;2022-07-22T06:52:54;7.20;;;2.30;;
16385;SDS011;8302;51.154;4.456;2022-07-22T06:55:22;2.30;;;1.15;;
16385;SDS011;8302;51.154;4.456;2022-07-22T06:57:59;5.90;;;1.98;;
16385;SDS011;8302;51.154;4.456;2022-07-22T07:00:27;7.88;;;1.40;;
16385;SDS011;8302;51.154;4.456;2022-07-22T07:03:25;5.07;;;1.60;;
16385;SDS011;8302;51.154;4.456;2022-07-22T07:06:08;3.97;;;1.67;;
16385;SDS011;8302;51.154;4.456;2022-07-22T07:09:02;3.10;;;1.63;;
16385;SDS011;8302;51.154;4.456;2022-07-22T07:11:31;5.47;;;1.52;;
16385;SDS011;8302;51.154;4.456;2022-07-22T07:14:03;12.45;;;1.75;;
16385;SDS011;8302;51.154;4.456;2022-07-22T07:16:31;4.03;;;1.63;;
16385;SDS011;8302;51.154;4.456;2022-07-22T07:19:01;8.65;;;2.00;;
16385;SDS011;8302;51.154;4.456;2022-07-22T07:21:31;4.18;;;1.90;;
16385;SDS011;8302;51.154;4.456;2022-07-22T07:23:58;6.13;;;1.60;;
16385;SDS011;8302;51.154;4.456;2022-07-22T07:26:27;6.28;;;1.80;;
16385;SDS011;8302;51.154;4.456;2022-07-22T07:28:55;6.13;;;1.75;;
16385;SDS011;8302;51.154;4.456;2022-07-22T07:31:30;5.18;;;1.77;;
16385;SDS011;8302;51.154;4.456;2022-07-22T07:34:04;2.67;;;1.23;;
16385;SDS011;8302;51.154;4.456;2022-07-22T07:36:34;1.95;;;1.20;;
16385;SDS011;8302;51.154;4.456;2022-07-22T07:39:03;3.55;;;1.20;;
16385;SDS011;8302;51.154;4.456;2022-07-22T07:41:31;1.58;;;1.10;;
16385;SDS011;8302;51.154;4.456;2022-07-22T07:44:00;3.17;;;1.45;;
16385;SDS011;8302;51.154;4.456;2022-07-22T07:46:27;5.97;;;1.45;;
16385;SDS011;8302;51.154;4.456;2022-07-22T07:48:56;2.47;;;1.00;;
16385;SDS011;8302;51.154;4.456;2022-07-22T07:51:25;10.43;;;1.33;;
16385;SDS011;8302;51.154;4.456;2022-07-22T07:53:55;3.47;;;1.13;;
16385;SDS011;8302;51.154;4.456;2022-07-22T07:56:23;2.38;;;1.25;;
16385;SDS011;8302;51.154;4.456;2022-07-22T07:58:51;3.15;;;1.50;;
16385;SDS011;8302;51.154;4.456;2022-07-22T08:01:40;4.22;;;1.75;;
16385;SDS011;8302;51.154;4.456;2022-07-22T08:04:27;3.38;;;1.23;;
16385;SDS011;8302;51.154;4.456;2022-07-22T08:07:07;2.67;;;1.02;;
16385;SDS011;8302;51.154;4.456;2022-07-22T08:09:40;7.82;;;1.25;;
16385;SDS011;8302;51.154;4.456;2022-07-22T08:12:17;1.60;;;1.27;;
16385;SDS011;8302;51.154;4.456;2022-07-22T08:15:18;5.70;;;1.40;;
16385;SDS011;8302;51.154;4.456;2022-07-22T08:17:50;3.17;;;1.30;;
16385;SDS011;8302;51.154;4.456;2022-07-22T08:20:20;5.85;;;1.52;;
16385;SDS011;8302;51.154;4.456;2022-07-22T08:22:48;2.53;;;0.85;;
16385;SDS011;8302;51.154;4.456;2022-07-22T08:25:18;5.85;;;1.65;;
16385;SDS011;8302;51.154;4.456;2022-07-22T08:27:47;7.38;;;1.40;;
16385;SDS011;8302;51.154;4.456;2022-07-22T08:30:15;4.90;;;1.17;;
16385;SDS011;8302;51.154;4.456;2022-07-22T08:32:44;1.67;;;1.38;;
16385;SDS011;8302;51.154;4.456;2022-07-22T08:35:12;2.78;;;1.27;;
16385;SDS011;8302;51.154;4.456;2022-07-22T08:37:41;4.57;;;1.48;;
16385;SDS011;8302;51.154;4.456;2022-07-22T08:40:12;2.83;;;1.70;;
16385;SDS011;8302;51.154;4.456;2022-07-22T08:42:42;3.42;;;1.77;;
16385;SDS011;8302;51.154;4.456;2022-07-22T08:45:11;3.10;;;1.60;;
16385;SDS011;8302;51.154;4.456;2022-07-22T08:47:48;4.50;;;1.83;;
16385;SDS011;8302;51.154;4.456;2022-07-22T08:50:23;6.25;;;2.10;;
16385;SDS011;8302;51.154;4.456;2022-07-22T08:53:00;2.60;;;1.63;;
16385;SDS011;8302;51.154;4.456;2022-07-22T08:55:28;3.15;;;1.77;;
16385;SDS011;8302;51.154;4.456;2022-07-22T08:57:58;1.55;;;1.25;;
16385;SDS011;8302;51.154;4.456;2022-07-22T09:00:25;2.63;;;1.55;;
16385;SDS011;8302;51.154;4.456;2022-07-22T09:02:53;5.55;;;1.50;;
16385;SDS011;8302;51.154;4.456;2022-07-22T09:05:21;4.80;;;1.95;;
16385;SDS011;8302;51.154;4.456;2022-07-22T09:08:11;3.30;;;1.77;;
16385;SDS011;8302;51.154;4.456;2022-07-22T09:11:14;6.10;;;1.80;;
16385;SDS011;8302;51.154;4.456;2022-07-22T09:14:02;5.63;;;2.20;;
16385;SDS011;8302;51.154;4.456;2022-07-22T09:16:46;3.28;;;2.20;;
16385;SDS011;8302;51.154;4.456;2022-07-22T09:19:37;7.22;;;1.92;;
16385;SDS011;8302;51.154;4.456;2022-07-22T09:22:34;4.38;;;1.65;;
16385;SDS011;8302;51.154;4.456;2022-07-22T09:25:22;8.07;;;1.60;;
16385;SDS011;8302;51.154;4.456;2022-07-22T09:28:22;5.07;;;1.88;;
16385;SDS011;8302;51.154;4.456;2022-07-22T09:31:24;3.22;;;1.60;;
16385;SDS011;8302;51.154;4.456;2022-07-22T09:34:07;3.75;;;1.77;;
16385;SDS011;8302;51.154;4.456;2022-07-22T09:36:48;3.47;;;1.90;;
16385;SDS011;8302;51.154;4.456;2022-07-22T09:39:24;6.68;;;2.40;;
16385;SDS011;8302;51.154;4.456;2022-07-22T09:41:57;3.20;;;1.52;;
16385;SDS011;8302;51.154;4.456;2022-07-22T09:44:26;3.65;;;2.17;;
16385;SDS011;8302;51.154;4.456;2022-07-22T09:46:58;5.75;;;2.10;;
16385;SDS011;8302;51.154;4.456;2022-07-22T09:49:55;5.93;;;1.92;;
16385;SDS011;8302;51.154;4.456;2022-07-22T09:52:57;4.82;;;1.75;;
16385;SDS011;8302;51.154;4.456;2022-07-22T09:55:30;2.92;;;1.80;;
16385;SDS011;8302;51.154;4.456;2022-07-22T09:58:00;3.70;;;1.50;;
16385;SDS011;8302;51.154;4.456;2022-07-22T10:00:28;4.30;;;1.63;;
16385;SDS011;8302;51.154;4.456;2022-07-22T10:02:59;5.50;;;1.85;;
16385;SDS011;8302;51.154;4.456;2022-07-22T10:05:31;3.38;;;2.03;;
16385;SDS011;8302;51.154;4.456;2022-07-22T10:08:01;4.05;;;2.00;;
16385;SDS011;8302;51.154;4.456;2022-07-22T10:10:30;3.00;;;1.80;;
16385;SDS011;8302;51.154;4.456;2022-07-22T10:12:58;4.70;;;2.35;;
16385;SDS011;8302;51.154;4.456;2022-07-22T10:15:27;23.52;;;2.10;;
16385;SDS011;8302;51.154;4.456;2022-07-22T10:18:05;4.95;;;2.17;;
16385;SDS011;8302;51.154;4.456;2022-07-22T10:20:36;3.08;;;2.03;;
16385;SDS011;8302;51.154;4.456;2022-07-22T10:23:05;5.85;;;2.10;;
16385;SDS011;8302;51.154;4.456;2022-07-22T10:28:27;6.65;;;2.58;;
16385;SDS011;8302;51.154;4.456;2022-07-22T10:31:08;3.08;;;2.13;;
16385;SDS011;8302;51.154;4.456;2022-07-22T10:33:47;3.30;;;2.00;;
16385;SDS011;8302;51.154;4.456;2022-07-22T10:36:28;5.30;;;2.45;;
16385;SDS011;8302;51.154;4.456;2022-07-22T10:39:04;7.72;;;2.63;;
16385;SDS011;8302;51.154;4.456;2022-07-22T10:41:34;5.13;;;2.47;;
16385;SDS011;8302;51.154;4.456;2022-07-22T10:44:02;4.07;;;2.70;;
16385;SDS011;8302;51.154;4.456;2022-07-22T10:49:16;5.07;;;2.70;;
16385;SDS011;8302;51.154;4.456;2022-07-22T10:54:26;5.60;;;2.65;;
16385;SDS011;8302;51.154;4.456;2022-07-22T10:57:04;6.70;;;2.83;;
16385;SDS011;8302;51.154;4.456;2022-07-22T10:59:31;4.85;;;2.70;;
16385;SDS011;8302;51.154;4.456;2022-07-22T11:01:59;3.90;;;2.22;;
16385;SDS011;8302;51.154;4.456;2022-07-22T11:04:29;3.95;;;2.63;;
16385;SDS011;8302;51.154;4.456;2022-07-22T11:06:57;5.63;;;2.50;;
16385;SDS011;8302;51.154;4.456;2022-07-22T11:09:30;5.00;;;2.50;;
16385;SDS011;8302;51.154;4.456;2022-07-22T11:11:58;3.95;;;2.78;;
16385;SDS011;8302;51.154;4.456;2022-07-22T11:14:27;3.78;;;2.60;;
16385;SDS011;8302;51.154;4.456;2022-07-22T11:16:57;5.25;;;2.63;;
16385;SDS011;8302;51.154;4.456;2022-07-22T11:19:26;3.35;;;1.92;;
16385;SDS011;8302;51.154;4.456;2022-07-22T11:21:57;5.40;;;2.75;;
16385;SDS011;8302;51.154;4.456;2022-07-22T11:24:25;4.15;;;2.70;;
16385;SDS011;8302;51.154;4.456;2022-07-22T11:26:54;4.60;;;3.08;;
16385;SDS011;8302;51.154;4.456;2022-07-22T11:29:30;4.78;;;2.40;;
16385;SDS011;8302;51.154;4.456;2022-07-22T11:32:00;5.32;;;2.40;;
16385;SDS011;8302;51.154;4.456;2022-07-22T11:34:28;5.32;;;2.92;;
16385;SDS011;8302;51.154;4.456;2022-07-22T11:36:58;4.80;;;2.63;;
16385;SDS011;8302;51.154;4.456;2022-07-22T11:39:26;3.60;;;2.10;;
16385;SDS011;8302;51.154;4.456;2022-07-22T11:41:56;4.82;;;2.72;;
16385;SDS011;8302;51.154;4.456;2022-07-22T11:44:25;5.70;;;2.10;;
16385;SDS011;8302;51.154;4.456;2022-07-22T11:46:53;3.85;;;1.35;;
16385;SDS011;8302;51.154;4.456;2022-07-22T11:49:25;5.80;;;3.15;;
16385;SDS011;8302;51.154;4.456;2022-07-22T11:51:53;8.95;;;2.72;;
16385;SDS011;8302;51.154;4.456;2022-07-22T11:54:23;5.38;;;2.70;;
16385;SDS011;8302;51.154;4.456;2022-07-22T11:56:51;4.53;;;3.17;;
16385;SDS011;8302;51.154;4.456;2022-07-22T11:59:24;4.80;;;3.03;;
16385;SDS011;8302;51.154;4.456;2022-07-22T12:01:52;3.90;;;2.47;;
16385;SDS011;8302;51.154;4.456;2022-07-22T12:04:21;5.18;;;3.08;;
16385;SDS011;8302;51.154;4.456;2022-07-22T12:06:49;6.03;;;3.05;;
16385;SDS011;8302;51.154;4.456;2022-07-22T12:09:20;4.35;;;2.72;;
16385;SDS011;8302;51.154;4.456;2022-07-22T12:11:50;3.90;;;2.92;;
16385;SDS011;8302;51.154;4.456;2022-07-22T12:14:19;4.15;;;2.63;;
16385;SDS011;8302;51.154;4.456;2022-07-22T12:16:53;4.75;;;3.28;;
16385;SDS011;8302;51.154;4.456;2022-07-22T12:19:21;5.55;;;2.80;;
16385;SDS011;8302;51.154;4.456;2022-07-22T12:21:52;3.47;;;2.65;;
16385;SDS011;8302;51.154;4.456;2022-07-22T12:24:27;5.22;;;3.20;;
16385;SDS011;8302;51.154;4.456;2022-07-22T12:26:58;6.43;;;2.88;;
16385;SDS011;8302;51.154;4.456;2022-07-22T12:29:27;8.57;;;3.28;;
16385;SDS011;8302;51.154;4.456;2022-07-22T12:31:57;4.85;;;3.00;;
16385;SDS011;8302;51.154;4.456;2022-07-22T12:34:28;8.32;;;2.45;;
16385;SDS011;8302;51.154;4.456;2022-07-22T12:36:56;6.88;;;2.90;;
16385;SDS011;8302;51.154;4.456;2022-07-22T12:39:24;5.90;;;3.42;;
16385;SDS011;8302;51.154;4.456;2022-07-22T12:41:53;6.43;;;3.40;;
16385;SDS011;8302;51.154;4.456;2022-07-22T12:44:23;9.10;;;3.45;;
16385;SDS011;8302;51.154;4.456;2022-07-22T12:46:57;6.20;;;3.13;;
16385;SDS011;8302;51.154;4.456;2022-07-22T12:49:25;5.50;;;3.10;;
16385;SDS011;8302;51.154;4.456;2022-07-22T12:52:05;5.38;;;3.47;;
16385;SDS011;8302;51.154;4.456;2022-07-22T12:54:34;6.07;;;3.13;;
16385;SDS011;8302;51.154;4.456;2022-07-22T12:57:02;5.07;;;3.40;;
16385;SDS011;8302;51.154;4.456;2022-07-22T12:59:32;4.68;;;2.38;;
16385;SDS011;8302;51.154;4.456;2022-07-22T13:02:01;7.78;;;3.05;;
16385;SDS011;8302;51.154;4.456;2022-07-22T13:04:29;3.75;;;3.13;;
16385;SDS011;8302;51.154;4.456;2022-07-22T13:06:57;6.68;;;4.00;;
16385;SDS011;8302;51.154;4.456;2022-07-22T13:09:25;5.95;;;2.70;;
16385;SDS011;8302;51.154;4.456;2022-07-22T13:11:53;4.93;;;2.45;;
16385;SDS011;8302;51.154;4.456;2022-07-22T13:14:21;7.00;;;2.35;;
16385;SDS011;8302;51.154;4.456;2022-07-22T13:16:50;6.03;;;2.88;;
16385;SDS011;8302;51.154;4.456;2022-07-22T13:19:18;4.93;;;3.20;;
16385;SDS011;8302;51.154;4.456;2022-07-22T13:21:46;9.80;;;3.42;;
16385;SDS011;8302;51.154;4.456;2022-07-22T13:24:14;6.15;;;3.17;;
16385;SDS011;8302;51.154;4.456;2022-07-22T13:26:42;5.55;;;3.15;;
16385;SDS011;8302;51.154;4.456;2022-07-22T13:29:12;6.13;;;3.15;;
16385;SDS011;8302;51.154;4.456;2022-07-22T13:31:40;6.95;;;3.17;;
16385;SDS011;8302;51.154;4.456;2022-07-22T13:34:30;5.28;;;3.28;;
16385;SDS011;8302;51.154;4.456;2022-07-22T13:36:58;5.30;;;2.97;;
16385;SDS011;8302;51.154;4.456;2022-07-22T13:39:25;7.60;;;3.40;;
16385;SDS011;8302;51.154;4.456;2022-07-22T13:41:53;6.63;;;3.20;;
16385;SDS011;8302;51.154;4.456;2022-07-22T13:44:21;4.80;;;2.50;;
16385;SDS011;8302;51.154;4.456;2022-07-22T13:46:49;6.28;;;3.65;;
16385;SDS011;8302;51.154;4.456;2022-07-22T13:49:17;4.70;;;3.08;;
16385;SDS011;8302;51.154;4.456;2022-07-22T13:51:47;3.95;;;2.55;;
16385;SDS011;8302;51.154;4.456;2022-07-22T13:54:15;4.97;;;3.15;;
16385;SDS011;8302;51.154;4.456;2022-07-22T13:56:43;3.85;;;1.60;;
16385;SDS011;8302;51.154;4.456;2022-07-22T13:59:13;4.68;;;3.13;;
16385;SDS011;8302;51.154;4.456;2022-07-22T14:01:42;8.65;;;3.60;;
16385;SDS011;8302;51.154;4.456;2022-07-22T14:04:10;5.63;;;2.60;;
16385;SDS011;8302;51.154;4.456;2022-07-22T14:06:38;7.00;;;3.13;;
16385;SDS011;8302;51.154;4.456;2022-07-22T14:09:07;5.82;;;3.33;;
16385;SDS011;8302;51.154;4.456;2022-07-22T14:11:55;4.55;;;3.05;;
16385;SDS011;8302;51.154;4.456;2022-07-22T14:14:25;8.40;;;3.50;;
16385;SDS011;8302;51.154;4.456;2022-07-22T14:16:53;6.28;;;3.30;;
16385;SDS011;8302;51.154;4.456;2022-07-22T14:19:23;7.63;;;3.78;;
16385;SDS011;8302;51.154;4.456;2022-07-22T14:21:51;4.97;;;3.13;;
16385;SDS011;8302;51.154;4.456;2022-07-22T14:24:21;6.53;;;3.00;;
16385;SDS011;8302;51.154;4.456;2022-07-22T14:26:49;10.60;;;3.65;;
16385;SDS011;8302;51.154;4.456;2022-07-22T14:29:17;8.05;;;4.00;;
16385;SDS011;8302;51.154;4.456;2022-07-22T14:31:47;8.10;;;2.95;;
16385;SDS011;8302;51.154;4.456;2022-07-22T14:34:15;5.18;;;3.22;;
16385;SDS011;8302;51.154;4.456;2022-07-22T14:36:45;6.53;;;3.92;;
16385;SDS011;8302;51.154;4.456;2022-07-22T14:39:14;8.90;;;3.80;;
16385;SDS011;8302;51.154;4.456;2022-07-22T14:41:43;9.32;;;3.42;;
16385;SDS011;8302;51.154;4.456;2022-07-22T14:44:13;5.40;;;3.08;;
16385;SDS011;8302;51.154;4.456;2022-07-22T14:46:41;8.45;;;3.65;;
16385;SDS011;8302;51.154;4.456;2022-07-22T14:49:09;6.63;;;3.63;;
16385;SDS011;8302;51.154;4.456;2022-07-22T14:51:41;6.03;;;3.30;;
16385;SDS011;8302;51.154;4.456;2022-07-22T14:54:09;3.13;;;2.30;;
16385;SDS011;8302;51.154;4.456;2022-07-22T14:56:38;5.05;;;3.00;;
16385;SDS011;8302;51.154;4.456;2022-07-22T14:59:07;5.22;;;3.33;;
16385;SDS011;8302;51.154;4.456;2022-07-22T15:01:35;3.70;;;1.95;;
16385;SDS011;8302;51.154;4.456;2022-07-22T15:04:04;6.65;;;3.58;;
16385;SDS011;8302;51.154;4.456;2022-07-22T15:06:33;4.50;;;3.15;;
16385;SDS011;8302;51.154;4.456;2022-07-22T15:09:01;10.73;;;3.70;;
16385;SDS011;8302;51.154;4.456;2022-07-22T15:11:29;5.95;;;3.72;;
16385;SDS011;8302;51.154;4.456;2022-07-22T15:13:57;4.93;;;3.22;;
16385;SDS011;8302;51.154;4.456;2022-07-22T15:16:27;4.93;;;3.20;;
16385;SDS011;8302;51.154;4.456;2022-07-22T15:18:55;5.88;;;3.30;;
16385;SDS011;8302;51.154;4.456;2022-07-22T15:21:23;7.32;;;3.75;;
16385;SDS011;8302;51.154;4.456;2022-07-22T15:23:57;4.15;;;2.97;;
16385;SDS011;8302;51.154;4.456;2022-07-22T15:26:26;8.35;;;3.75;;
16385;SDS011;8302;51.154;4.456;2022-07-22T15:28:54;5.85;;;3.53;;
16385;SDS011;8302;51.154;4.456;2022-07-22T15:31:22;8.45;;;3.17;;
16385;SDS011;8302;51.154;4.456;2022-07-22T15:33:52;6.75;;;3.38;;